Time;durP1;ratioP1;P1;durP2;ratioP2;P2;SDS_P1;SDS_P2;PMS_P1;PMS_P2;Temp;Humidity;BMP_temperature;BMP_pressure;BME280_temperature;BME280_humidity;BME280_pressure;Samples;Min_cycle;Max_cycle;Signal;HPM_P1;HPM_P2
2022/06/28 00:01:43;;;;;;;9.50;4.50;;;;;;;22.83;76.91;97796.09;5103591;28;20053;-81
2022/06/28 00:04:11;;;;;;;9.80;4.25;;;;;;;22.65;78.16;97792.22;5105301;28;20467;-82
2022/06/28 00:06:37;;;;;;;9.93;4.15;;;;;;;22.66;78.58;97785.50;5105827;28;20030;-82
2022/06/28 00:09:03;;;;;;;10.75;3.85;;;;;;;22.65;78.47;97784.69;5103243;28;20024;-81
2022/06/28 00:11:28;;;;;;;9.75;4.50;;;;;;;22.66;78.49;97775.16;5103044;28;20020;-82
2022/06/28 00:13:54;;;;;;;12.98;4.28;;;;;;;22.59;79.12;97774.22;5102644;28;20036;-81
2022/06/28 00:16:19;;;;;;;11.27;4.25;;;;;;;22.61;78.75;97778.25;5103866;28;20055;-85
2022/06/28 00:18:45;;;;;;;15.10;4.95;;;;;;;22.69;79.00;97784.75;5104196;28;20020;-83
2022/06/28 00:21:11;;;;;;;8.55;4.30;;;;;;;22.67;78.87;97792.69;5105492;28;20081;-81
2022/06/28 00:23:38;;;;;;;11.20;5.15;;;;;;;22.65;78.69;97781.06;5105297;28;20032;-82
2022/06/28 00:26:05;;;;;;;7.97;4.07;;;;;;;22.64;78.96;97779.47;5101559;28;20132;-81
2022/06/28 00:28:31;;;;;;;12.63;4.78;;;;;;;22.54;79.58;97774.56;5088186;28;20063;-83
2022/06/28 00:30:56;;;;;;;13.02;5.32;;;;;;;22.48;80.43;97774.09;5104896;28;20054;-82
2022/06/28 00:33:21;;;;;;;16.25;5.80;;;;;;;22.55;79.76;97765.03;5103796;28;20028;-82
2022/06/28 00:35:47;;;;;;;11.77;5.55;;;;;;;22.69;79.40;97779.16;5110094;28;20058;-83
2022/06/28 00:38:13;;;;;;;13.93;5.53;;;;;;;22.62;79.01;97779.03;5104894;28;20115;-84
2022/06/28 00:40:47;;;;;;;14.23;5.15;;;;;;;22.53;79.82;97786.88;5103637;28;20053;-81
2022/06/28 00:43:14;;;;;;;15.52;6.00;;;;;;;22.48;79.46;97790.00;5104726;28;20077;-81
2022/06/28 00:45:43;;;;;;;15.93;6.43;;;;;;;22.23;81.07;97793.25;5104423;28;20116;-82
2022/06/28 00:48:11;;;;;;;24.23;6.13;;;;;;;22.12;81.56;97803.41;5102353;28;20017;-83
2022/06/28 00:50:38;;;;;;;20.58;6.20;;;;;;;22.13;81.95;97788.31;5106541;28;20112;-81
2022/06/28 00:53:07;;;;;;;18.25;6.32;;;;;;;22.19;81.41;97800.75;5106727;28;20028;-81
2022/06/28 00:55:33;;;;;;;14.35;6.35;;;;;;;22.13;81.48;97793.88;5104282;28;20056;-81
2022/06/28 00:58:00;;;;;;;18.88;6.43;;;;;;;22.17;81.56;97803.13;5106496;28;20024;-82
2022/06/28 01:00:26;;;;;;;10.93;6.07;;;;;;;22.16;81.42;97790.34;5105975;28;20021;-81
2022/06/28 01:02:52;;;;;;;20.10;5.97;;;;;;;22.09;81.81;97786.63;5101609;28;20111;-82
2022/06/28 01:05:18;;;;;;;13.00;4.85;;;;;;;22.11;81.86;97790.69;5096435;28;20092;-82
2022/06/28 01:07:43;;;;;;;15.05;5.22;;;;;;;22.11;81.97;97793.47;5107481;28;20431;-83
2022/06/28 01:10:10;;;;;;;13.23;4.53;;;;;;;21.98;82.31;97778.13;5112672;28;20039;-83
2022/06/28 01:12:35;;;;;;;10.10;4.57;;;;;;;21.97;83.47;97796.03;5107787;28;20039;-82
2022/06/28 01:15:00;;;;;;;11.10;5.03;;;;;;;21.92;83.76;97795.53;5107563;28;20024;-82
2022/06/28 01:17:26;;;;;;;9.18;4.72;;;;;;;21.97;83.91;97798.81;5106043;28;20092;-82
2022/06/28 01:19:52;;;;;;;11.98;4.72;;;;;;;21.79;84.95;97792.94;5104893;28;20032;-82
2022/06/28 01:22:19;;;;;;;14.88;5.53;;;;;;;21.78;85.55;97787.72;5108192;28;20043;-83
2022/06/28 01:24:46;;;;;;;14.18;5.15;;;;;;;21.71;85.23;97791.19;5105885;28;20074;-81
2022/06/28 01:27:13;;;;;;;11.70;4.68;;;;;;;21.64;84.97;97790.28;5103594;28;20099;-84
2022/06/28 01:29:39;;;;;;;11.20;4.97;;;;;;;21.67;84.77;97790.34;5108999;28;20079;-81
2022/06/28 01:32:05;;;;;;;8.63;4.40;;;;;;;21.66;84.45;97799.06;5106869;28;20026;-82
2022/06/28 01:34:30;;;;;;;13.35;5.15;;;;;;;21.50;84.38;97778.88;5107646;28;20050;-84
2022/06/28 01:36:55;;;;;;;8.52;4.10;;;;;;;21.61;84.82;97796.59;5106853;28;20020;-83
2022/06/28 01:39:21;;;;;;;16.40;5.75;;;;;;;21.54;84.89;97800.06;5109965;28;20019;-82
2022/06/28 01:41:49;;;;;;;10.60;4.95;;;;;;;21.52;85.00;97793.25;5110107;28;20020;-83
2022/06/28 01:44:15;;;;;;;10.73;4.82;;;;;;;21.56;84.98;97810.81;5109771;28;20028;-82
2022/06/28 01:46:41;;;;;;;12.10;5.70;;;;;;;21.50;86.42;97815.06;5108410;28;20036;-82
2022/06/28 01:49:07;;;;;;;15.35;4.70;;;;;;;21.48;86.50;97814.63;5106313;28;20031;-82
2022/06/28 01:51:32;;;;;;;13.27;5.57;;;;;;;21.55;86.39;97817.56;5108628;28;20012;-82
2022/06/28 01:53:57;;;;;;;13.35;5.15;;;;;;;21.63;87.21;97827.63;5105179;28;20028;-81
2022/06/28 01:56:24;;;;;;;11.63;4.90;;;;;;;21.52;88.82;97829.44;5104679;28;20083;-80
2022/06/28 01:58:49;;;;;;;11.65;5.18;;;;;;;21.45;89.16;97823.72;5105672;28;20043;-84
2022/06/28 02:01:15;;;;;;;12.43;6.03;;;;;;;21.55;89.40;97842.63;5105455;28;20501;-83
2022/06/28 02:03:41;;;;;;;16.77;5.47;;;;;;;21.43;90.24;97820.50;5106488;28;20016;-84
2022/06/28 02:06:07;;;;;;;14.25;6.00;;;;;;;21.42;91.34;97830.84;5107292;28;20024;-83
2022/06/28 02:08:35;;;;;;;12.88;5.70;;;;;;;21.34;91.86;97840.22;5087369;28;20028;-83
2022/06/28 02:11:01;;;;;;;13.73;5.57;;;;;;;21.37;91.67;97825.56;5087157;28;20038;-83
2022/06/28 02:13:27;;;;;;;10.15;5.90;;;;;;;21.39;92.06;97845.50;5106813;28;20073;-82
2022/06/28 02:15:53;;;;;;;20.52;5.50;;;;;;;21.33;92.32;97831.06;5106038;28;20111;-83
2022/06/28 02:18:18;;;;;;;7.97;4.93;;;;;;;21.19;92.81;97816.09;5108012;28;20059;-83
2022/06/28 02:20:44;;;;;;;12.70;5.47;;;;;;;21.29;92.35;97813.50;5108255;28;20039;-83
2022/06/28 02:23:09;;;;;;;13.38;5.53;;;;;;;21.37;91.96;97825.56;5109104;28;20438;-83
2022/06/28 02:25:35;;;;;;;19.20;5.35;;;;;;;21.35;92.03;97844.63;5109536;28;20035;-84
2022/06/28 02:28:00;;;;;;;17.23;5.28;;;;;;;21.31;92.59;97843.75;5107733;28;20031;-82
2022/06/28 02:30:25;;;;;;;17.50;5.38;;;;;;;21.26;92.34;97842.09;5107793;28;20073;-82
2022/06/28 02:32:51;;;;;;;15.88;5.50;;;;;;;21.20;92.04;97838.00;5108207;28;20043;-84
2022/06/28 02:40:44;;;;;;;14.38;5.03;;;;;;;20.93;91.34;97835.38;5107983;28;20039;-84
2022/06/28 02:43:10;;;;;;;14.50;5.60;;;;;;;20.85;91.58;97831.66;5107260;28;20032;-83
2022/06/28 02:45:35;;;;;;;14.93;4.80;;;;;;;20.82;91.88;97849.09;5107797;28;20081;-83
2022/06/28 02:48:02;;;;;;;10.73;4.68;;;;;;;20.87;90.79;97834.88;5107407;28;20024;-85
2022/06/28 02:50:28;;;;;;;11.77;5.55;;;;;;;20.90;90.24;97847.25;5105580;28;20496;-83
2022/06/28 02:52:54;;;;;;;15.45;5.20;;;;;;;20.77;90.87;97852.13;5106137;28;20118;-81
2022/06/28 02:55:19;;;;;;;14.88;5.50;;;;;;;20.78;92.08;97864.88;5106356;28;20554;-83
2022/06/28 02:57:45;;;;;;;10.77;5.13;;;;;;;20.67;93.04;97858.28;5106502;28;20035;-84
2022/06/28 03:00:15;;;;;;;13.05;5.15;;;;;;;20.83;92.34;97864.59;5107898;28;20024;-82
2022/06/28 03:02:41;;;;;;;13.75;5.05;;;;;;;20.83;91.39;97850.69;5107583;28;20092;-83
2022/06/28 03:05:09;;;;;;;11.88;4.88;;;;;;;20.93;90.71;97860.41;5108678;28;20024;-84
2022/06/28 03:07:36;;;;;;;9.25;4.60;;;;;;;20.90;90.52;97859.19;5107058;28;20031;-82
2022/06/28 03:10:02;;;;;;;14.48;5.53;;;;;;;20.87;91.12;97868.25;5107564;28;20024;-84
2022/06/28 03:12:28;;;;;;;12.77;6.05;;;;;;;20.79;92.09;97866.50;5106389;28;20059;-83
2022/06/28 03:14:53;;;;;;;15.60;5.15;;;;;;;20.58;95.23;97866.03;5105803;28;20020;-83
2022/06/28 03:17:19;;;;;;;12.40;5.05;;;;;;;20.52;96.95;97867.44;5107475;28;20473;-83
2022/06/28 03:19:44;;;;;;;13.43;5.45;;;;;;;20.47;98.25;97868.56;5107366;28;20032;-83
2022/06/28 03:22:10;;;;;;;19.83;5.25;;;;;;;20.33;100.00;97881.31;5105840;28;20028;-84
2022/06/28 03:24:35;;;;;;;28.20;6.32;;;;;;;20.36;100.00;97886.16;5107392;28;20118;-81
2022/06/28 03:27:00;;;;;;;13.10;5.72;;;;;;;20.47;99.95;97892.75;5115090;28;20028;-81
2022/06/28 03:29:26;;;;;;;15.40;6.25;;;;;;;20.54;99.49;97888.19;5114708;28;20035;-83
2022/06/28 03:31:51;;;;;;;12.50;5.45;;;;;;;20.49;99.80;97887.63;5111610;28;20028;-83
2022/06/28 03:34:19;;;;;;;11.82;5.10;;;;;;;20.51;100.00;97888.91;5112856;28;20031;-82
2022/06/28 03:36:45;;;;;;;15.45;5.43;;;;;;;20.33;100.00;97864.66;5113188;28;20020;-83
2022/06/28 03:39:11;;;;;;;11.45;5.53;;;;;;;20.59;100.00;97895.41;5113845;28;20027;-83
2022/06/28 03:41:37;;;;;;;13.98;5.50;;;;;;;20.48;100.00;97897.16;5113372;28;20107;-85
2022/06/28 03:44:03;;;;;;;15.40;6.28;;;;;;;20.47;100.00;97909.44;5111773;28;20024;-84
2022/06/28 03:46:29;;;;;;;13.18;6.10;;;;;;;20.49;100.00;97907.09;5095484;28;20058;-82
2022/06/28 03:48:54;;;;;;;12.00;5.43;;;;;;;20.55;99.80;97911.22;5114313;28;20039;-83
2022/06/28 03:51:19;;;;;;;13.80;5.05;;;;;;;20.53;98.86;97899.66;5114340;28;20078;-82
2022/06/28 03:53:45;;;;;;;14.05;5.25;;;;;;;20.66;97.00;97912.28;5112694;28;20020;-84
2022/06/28 03:56:10;;;;;;;15.02;5.05;;;;;;;20.71;95.92;97906.41;5111381;28;20058;-83
2022/06/28 03:58:36;;;;;;;13.00;5.45;;;;;;;20.75;95.29;97904.53;5114898;28;19996;-82
2022/06/28 04:01:01;;;;;;;14.23;4.85;;;;;;;20.70;96.04;97907.59;5113395;28;20024;-83
2022/06/28 04:03:27;;;;;;;11.40;4.85;;;;;;;20.75;95.78;97924.81;5110579;28;20020;-83
2022/06/28 04:05:52;;;;;;;16.85;5.55;;;;;;;20.75;94.94;97929.56;5114239;28;20032;-84
2022/06/28 04:08:18;;;;;;;14.07;4.93;;;;;;;20.76;94.60;97932.00;5112395;28;20023;-82
2022/06/28 04:10:44;;;;;;;11.27;5.90;;;;;;;20.85;93.66;97923.44;5093696;28;20032;-83
2022/06/28 04:13:10;;;;;;;20.00;5.82;;;;;;;20.92;92.88;97909.69;5110588;28;20052;-83
2022/06/28 04:15:37;;;;;;;13.32;5.30;;;;;;;21.25;90.77;97925.91;5111838;28;20024;-82
2022/06/28 04:18:04;;;;;;;12.93;5.53;;;;;;;21.16;90.33;97926.13;5094397;28;20016;-84
2022/06/28 04:20:29;;;;;;;14.23;4.63;;;;;;;21.11;90.29;97943.09;5109519;28;20515;-81
2022/06/28 04:22:54;;;;;;;14.10;4.90;;;;;;;20.93;90.45;97921.59;5108110;28;20027;-82
2022/06/28 04:25:20;;;;;;;8.38;4.80;;;;;;;20.84;91.30;97933.75;5112617;28;20036;-86
2022/06/28 04:27:45;;;;;;;10.15;5.03;;;;;;;20.95;91.07;97950.69;5112540;28;20023;-82
2022/06/28 04:30:11;;;;;;;15.98;5.45;;;;;;;20.96;90.59;97946.72;5111721;28;20032;-85
2022/06/28 04:32:37;;;;;;;9.20;5.10;;;;;;;20.96;90.44;97949.50;5111602;28;20020;-83
2022/06/28 04:35:03;;;;;;;16.10;4.90;;;;;;;21.11;89.29;97945.88;5115081;28;20048;-82
2022/06/28 04:37:28;;;;;;;15.95;5.85;;;;;;;21.29;88.32;97955.44;5115515;28;20024;-82
2022/06/28 04:39:54;;;;;;;13.50;5.15;;;;;;;21.28;88.10;97950.22;5115249;28;20078;-83
2022/06/28 04:42:19;;;;;;;17.10;6.03;;;;;;;21.44;87.86;97955.72;5111919;28;20065;-84
2022/06/28 04:44:45;;;;;;;16.27;5.80;;;;;;;21.50;87.16;97957.84;5110361;28;20058;-85
2022/06/28 04:47:11;;;;;;;14.77;4.88;;;;;;;21.56;86.80;97955.56;5107175;28;20091;-82
2022/06/28 04:49:37;;;;;;;14.55;4.90;;;;;;;21.52;86.83;97960.28;5105812;28;20031;-82
2022/06/28 04:52:03;;;;;;;15.18;5.07;;;;;;;21.71;85.66;97961.06;5108957;28;20024;-83
2022/06/28 04:54:28;;;;;;;13.73;4.78;;;;;;;21.82;83.41;97958.50;5112194;28;20085;-83
2022/06/28 04:56:54;;;;;;;12.52;4.93;;;;;;;21.86;82.78;97954.56;5111498;28;20054;-82
2022/06/28 04:59:19;;;;;;;15.88;5.22;;;;;;;22.17;81.18;97956.41;5111003;28;20476;-82
2022/06/28 05:01:45;;;;;;;10.35;4.93;;;;;;;22.29;79.77;97972.13;5109022;28;20107;-83
2022/06/28 05:04:11;;;;;;;12.43;4.78;;;;;;;22.32;79.51;97965.78;5109763;28;20055;-83
2022/06/28 05:06:37;;;;;;;9.20;3.95;;;;;;;22.76;76.73;97966.16;5107408;28;20020;-84
2022/06/28 05:09:02;;;;;;;19.90;5.25;;;;;;;23.08;75.10;97986.19;5109228;28;20433;-84
2022/06/28 05:11:29;;;;;;;12.10;4.63;;;;;;;22.89;75.36;97987.91;5110267;28;20028;-83
2022/06/28 05:13:55;;;;;;;12.43;5.40;;;;;;;23.05;74.47;97982.16;5109432;28;20036;-84
2022/06/28 05:16:20;;;;;;;11.05;5.25;;;;;;;23.59;72.40;97989.31;5107869;28;20039;-83
2022/06/28 05:18:46;;;;;;;11.20;4.63;;;;;;;23.84;71.52;97973.63;5107767;28;20020;-83
2022/06/28 05:21:11;;;;;;;15.73;5.20;;;;;;;23.80;71.28;97967.19;5107407;28;20091;-84
2022/06/28 05:23:37;;;;;;;9.25;4.68;;;;;;;23.61;71.98;97970.16;5109767;28;20028;-84
2022/06/28 05:26:03;;;;;;;9.35;4.35;;;;;;;23.92;70.56;97980.91;5107655;28;20114;-83
2022/06/28 05:28:28;;;;;;;12.98;4.63;;;;;;;24.36;68.68;97979.00;5106108;28;20031;-83
2022/06/28 05:30:54;;;;;;;8.60;5.28;;;;;;;24.46;67.97;97983.09;5106306;28;20091;-83
2022/06/28 05:33:19;;;;;;;9.65;4.60;;;;;;;24.26;68.91;97976.91;5108849;28;20036;-82
2022/06/28 05:35:45;;;;;;;12.43;5.50;;;;;;;24.36;69.05;97973.41;5108047;28;20115;-83
2022/06/28 05:38:10;;;;;;;17.13;5.80;;;;;;;24.24;68.72;97976.50;5105351;28;20044;-83
2022/06/28 05:40:36;;;;;;;13.52;6.03;;;;;;;24.31;68.15;97987.72;5105406;28;20473;-83
2022/06/28 05:43:01;;;;;;;13.77;5.47;;;;;;;24.27;68.29;97988.91;5106406;28;20062;-83
2022/06/28 05:45:28;;;;;;;14.13;6.43;;;;;;;24.53;67.73;97995.13;5105831;28;20042;-82
2022/06/28 05:47:53;;;;;;;16.30;5.43;;;;;;;24.50;67.60;97987.50;5104581;28;20056;-83
2022/06/28 05:50:19;;;;;;;10.77;5.20;;;;;;;24.72;66.99;97979.28;5102885;28;20063;-83
2022/06/28 05:52:47;;;;;;;18.73;5.65;;;;;;;24.73;67.25;97986.50;5102741;28;20077;-81
2022/06/28 05:55:13;;;;;;;14.98;5.60;;;;;;;24.00;69.54;97994.56;5106286;28;20051;-82
2022/06/28 05:57:38;;;;;;;13.02;5.10;;;;;;;24.56;68.39;98003.97;5105763;28;20032;-81
2022/06/28 06:00:05;;;;;;;15.18;5.70;;;;;;;24.70;68.10;97998.47;5100557;28;20366;-82
2022/06/28 06:02:30;;;;;;;19.98;5.70;;;;;;;24.99;66.92;98005.94;5102687;28;20169;-82
2022/06/28 06:04:56;;;;;;;13.55;6.45;;;;;;;25.18;66.16;98002.06;5103966;28;20028;-82
2022/06/28 06:07:21;;;;;;;17.48;6.72;;;;;;;25.08;66.10;97998.00;5101639;28;20035;-82
2022/06/28 06:09:47;;;;;;;20.52;6.28;;;;;;;25.20;65.53;98000.47;5103004;28;20027;-82
2022/06/28 06:12:12;;;;;;;16.85;5.53;;;;;;;25.53;64.42;98011.50;5109728;28;20052;-83
2022/06/28 06:14:38;;;;;;;14.38;5.20;;;;;;;25.62;63.33;98011.16;5106130;28;20087;-83
2022/06/28 06:17:07;;;;;;;13.60;4.90;;;;;;;25.96;61.18;98009.69;5101974;28;20030;-81
2022/06/28 06:19:32;;;;;;;15.68;6.75;;;;;;;26.20;59.99;98027.81;5102086;28;20032;-82
2022/06/28 06:21:57;;;;;;;12.60;6.22;;;;;;;26.52;58.42;98020.28;5107530;28;20028;-82
2022/06/28 06:24:23;;;;;;;19.02;6.22;;;;;;;26.04;60.24;98032.94;5104231;28;20020;-82
2022/06/28 06:26:48;;;;;;;28.17;5.95;;;;;;;25.84;60.56;98040.09;5102851;28;20024;-82
2022/06/28 06:29:13;;;;;;;16.13;5.53;;;;;;;25.83;60.07;98049.69;5102792;28;20043;-82
2022/06/28 06:31:39;;;;;;;10.80;5.70;;;;;;;26.47;58.90;98051.53;5102481;28;20008;-82
2022/06/28 06:34:04;;;;;;;16.20;6.25;;;;;;;27.17;55.51;98052.00;5098256;28;20048;-82
2022/06/28 06:36:30;;;;;;;11.50;6.70;;;;;;;27.04;55.68;98054.41;5102429;28;20052;-82
2022/06/28 06:38:55;;;;;;;15.88;5.68;;;;;;;26.33;58.32;98054.31;5102599;28;20031;-79
2022/06/28 06:41:21;;;;;;;23.58;5.72;;;;;;;26.71;57.38;98055.59;5094848;28;20051;-83
2022/06/28 06:43:46;;;;;;;17.35;5.95;;;;;;;26.59;56.86;98034.28;5112788;28;20492;-82
2022/06/28 06:46:13;;;;;;;13.60;5.78;;;;;;;26.62;56.70;98043.94;5120015;28;20038;-82
2022/06/28 06:48:38;;;;;;;12.60;4.40;;;;;;;26.47;56.95;98037.47;5114370;28;20476;-80
2022/06/28 06:51:03;;;;;;;12.25;5.28;;;;;;;26.63;56.34;98036.34;5118732;28;20030;-81
2022/06/28 06:53:29;;;;;;;19.17;5.18;;;;;;;26.44;56.61;98057.13;5116671;28;20495;-79
2022/06/28 06:55:55;;;;;;;16.88;6.13;;;;;;;26.50;55.94;98056.34;5119956;28;20049;-79
2022/06/28 06:58:20;;;;;;;17.75;5.20;;;;;;;26.61;55.84;98057.16;5120637;28;20027;-78
2022/06/28 07:00:47;;;;;;;17.52;5.28;;;;;;;26.96;54.92;98052.81;5120027;28;20007;-80
2022/06/28 07:03:12;;;;;;;13.07;5.45;;;;;;;26.94;55.00;98052.44;5125763;28;20042;-84
2022/06/28 07:05:38;;;;;;;17.30;5.32;;;;;;;26.59;55.63;98042.72;5122809;28;20028;-84
2022/06/28 07:08:03;;;;;;;18.13;5.53;;;;;;;26.86;55.59;98053.59;5124011;28;20032;-86
2022/06/28 07:10:29;;;;;;;17.75;5.85;;;;;;;27.12;54.52;98056.03;5121264;28;20032;-82
2022/06/28 07:12:55;;;;;;;14.43;5.90;;;;;;;27.26;53.00;98053.19;5124991;28;20047;-84
2022/06/28 07:15:21;;;;;;;17.23;5.10;;;;;;;27.29;52.53;98072.06;5127180;28;20020;-85
2022/06/28 07:17:47;;;;;;;11.90;5.55;;;;;;;27.41;52.39;98065.25;5106323;28;20058;-81
2022/06/28 07:20:13;;;;;;;15.07;5.35;;;;;;;27.69;52.05;98068.03;5119397;28;20019;-86
2022/06/28 07:22:38;;;;;;;18.17;5.40;;;;;;;28.06;50.91;98071.13;5102945;28;20110;-83
2022/06/28 07:25:04;;;;;;;20.42;6.00;;;;;;;28.02;49.42;98083.56;5121685;28;20028;-80
2022/06/28 07:27:30;;;;;;;15.75;5.63;;;;;;;28.07;49.71;98074.72;5119538;28;20028;-84
2022/06/28 07:29:55;;;;;;;18.77;4.78;;;;;;;28.17;49.09;98065.44;5123960;28;20564;-82
2022/06/28 07:32:21;;;;;;;20.55;5.68;;;;;;;27.89;50.09;98079.59;5114760;28;20031;-80
2022/06/28 07:34:46;;;;;;;16.50;5.90;;;;;;;28.38;48.83;98082.22;5113492;28;20028;-80
2022/06/28 07:37:12;;;;;;;15.35;5.22;;;;;;;28.87;47.39;98080.34;5111264;28;20023;-81
2022/06/28 07:39:37;;;;;;;21.45;5.15;;;;;;;28.93;47.38;98095.59;5111581;28;20031;-81
2022/06/28 07:42:03;;;;;;;14.55;5.70;;;;;;;28.81;47.61;98091.25;5093311;28;20118;-81
2022/06/28 07:44:28;;;;;;;19.13;5.13;;;;;;;29.09;46.55;98079.78;5110920;28;20032;-79
2022/06/28 07:46:54;;;;;;;16.55;5.82;;;;;;;29.38;45.88;98091.66;5112433;28;20395;-81
2022/06/28 07:49:19;;;;;;;17.88;6.00;;;;;;;29.95;45.11;98091.88;5110747;28;20027;-80
2022/06/28 07:54:29;;;;;;;20.33;4.90;;;;;;;30.06;44.15;98075.63;5117356;28;20089;-82
2022/06/28 07:56:54;;;;;;;16.33;5.28;;;;;;;30.77;42.75;98083.16;5121538;28;20027;-81
2022/06/28 07:59:19;;;;;;;19.08;5.13;;;;;;;31.60;40.81;98089.94;5121739;28;20118;-83
2022/06/28 08:01:45;;;;;;;14.30;4.70;;;;;;;33.92;36.85;98086.72;5124513;28;20028;-81
2022/06/28 08:04:12;;;;;;;12.90;5.35;;;;;;;35.02;34.68;98082.66;5119739;28;20110;-80
2022/06/28 08:06:38;;;;;;;13.18;5.35;;;;;;;34.97;34.61;98084.81;5110709;28;20073;-81
2022/06/28 08:09:03;;;;;;;16.17;4.53;;;;;;;34.77;34.42;98094.84;5111029;28;20077;-80
2022/06/28 08:11:29;;;;;;;18.20;4.78;;;;;;;35.63;33.16;98097.31;5109631;28;20023;-78
2022/06/28 08:13:54;;;;;;;15.07;5.13;;;;;;;34.82;34.16;98100.75;5113720;28;20039;-78
2022/06/28 08:16:21;;;;;;;17.15;5.63;;;;;;;33.67;36.08;98080.91;5113903;28;20023;-78
2022/06/28 08:18:46;;;;;;;13.20;5.13;;;;;;;36.98;31.31;98090.25;5113127;28;20031;-79
2022/06/28 08:21:12;;;;;;;16.42;4.85;;;;;;;36.95;31.71;98083.44;5114452;27;20036;-80
2022/06/28 08:23:37;;;;;;;13.77;5.03;;;;;;;35.56;34.31;98071.91;5114849;28;20553;-81
2022/06/28 08:26:03;;;;;;;13.57;5.05;;;;;;;35.57;34.84;98079.19;5115856;28;20027;-78
2022/06/28 08:28:28;;;;;;;9.10;3.88;;;;;;;36.13;34.12;98075.63;5126097;28;20108;-80
2022/06/28 08:30:54;;;;;;;15.68;5.05;;;;;;;37.01;32.67;98070.16;5119323;28;20118;-80
2022/06/28 08:33:19;;;;;;;11.13;4.53;;;;;;;37.44;31.98;98069.19;5114628;28;20024;-77
2022/06/28 08:35:45;;;;;;;11.43;4.68;;;;;;;36.98;33.06;98056.00;5114487;28;20028;-80
2022/06/28 08:38:10;;;;;;;13.27;4.90;;;;;;;36.23;34.37;98054.47;5113023;28;20032;-78
2022/06/28 08:40:36;;;;;;;12.65;5.15;;;;;;;37.32;32.62;98052.16;5113880;28;20113;-77
2022/06/28 08:43:05;;;;;;;11.50;4.10;;;;;;;35.12;37.13;98050.22;5114456;28;20525;-76
2022/06/28 08:45:31;;;;;;;10.95;4.82;;;;;;;35.04;37.54;98046.00;5114337;28;20024;-78
2022/06/28 08:47:57;;;;;;;11.00;4.93;;;;;;;35.65;36.61;98040.69;5112762;28;20038;-80
2022/06/28 08:50:39;;;;;;;14.27;4.60;;;;;;;37.01;34.69;98044.47;5112532;28;20031;-78
2022/06/28 08:53:07;;;;;;;10.13;5.07;;;;;;;35.73;36.14;98036.34;5112768;28;20032;-81
2022/06/28 08:55:34;;;;;;;10.77;4.65;;;;;;;36.60;34.88;98042.06;5113136;28;20468;-78
2022/06/28 08:58:01;;;;;;;13.38;5.10;;;;;;;36.53;35.30;98025.22;5112436;28;20028;-78
2022/06/28 09:00:27;;;;;;;6.90;5.00;;;;;;;35.83;36.76;98038.00;5112728;28;20123;-77
2022/06/28 09:02:54;;;;;;;10.05;5.40;;;;;;;35.57;37.54;98033.63;5114297;28;20115;-79
2022/06/28 09:05:26;;;;;;;13.18;4.75;;;;;;;34.27;40.00;98022.41;5113611;28;20063;-76
2022/06/28 09:07:54;;;;;;;10.32;4.82;;;;;;;35.38;38.33;98021.28;5113735;28;20035;-80
2022/06/28 09:10:20;;;;;;;13.10;5.05;;;;;;;35.97;37.16;98016.75;5113661;28;20031;-74
2022/06/28 09:12:54;;;;;;;7.82;3.92;;;;;;;35.64;37.85;98022.03;5119614;28;20031;-76
2022/06/28 09:15:23;;;;;;;10.43;5.05;;;;;;;35.85;38.06;98012.69;5130259;28;20089;-77
2022/06/28 09:17:53;;;;;;;11.88;4.65;;;;;;;36.50;37.09;98009.00;5132699;28;20099;-77
2022/06/28 09:20:18;;;;;;;7.35;4.95;;;;;;;34.59;39.75;98007.22;5117301;28;20078;-76
2022/06/28 09:22:44;;;;;;;6.82;4.93;;;;;;;33.53;43.22;98015.16;5112290;28;20036;-77
2022/06/28 09:25:13;;;;;;;7.97;5.68;;;;;;;33.61;42.43;98019.47;5111571;28;20464;-77
2022/06/28 09:27:41;;;;;;;7.60;5.32;;;;;;;34.89;40.24;98015.22;5112872;28;20024;-80
2022/06/28 09:30:09;;;;;;;9.23;5.93;;;;;;;34.69;40.21;98016.69;5112228;28;20045;-80
2022/06/28 09:32:36;;;;;;;9.23;5.45;;;;;;;35.04;40.45;98017.56;5113150;28;20055;-77
2022/06/28 09:35:11;;;;;;;8.65;5.22;;;;;;;33.83;41.38;98001.34;5112156;28;20039;-78
2022/06/28 09:37:45;;;;;;;9.80;5.05;;;;;;;34.86;39.73;98007.59;5113418;28;20054;-78
2022/06/28 09:40:13;;;;;;;9.07;5.32;;;;;;;34.66;39.99;98009.84;5113171;28;20061;-77
2022/06/28 09:42:40;;;;;;;7.97;4.53;;;;;;;34.40;39.68;98009.00;5114059;28;20085;-78
2022/06/28 09:45:07;;;;;;;8.18;5.28;;;;;;;34.54;40.23;98001.28;5117022;28;20026;-81
2022/06/28 09:47:32;;;;;;;12.73;5.30;;;;;;;34.82;39.45;98008.94;5111354;28;20024;-78
2022/06/28 09:49:58;;;;;;;7.13;4.65;;;;;;;34.85;39.07;97988.13;5112883;28;20046;-79
2022/06/28 09:52:29;;;;;;;9.73;4.78;;;;;;;34.75;38.97;98001.44;5112429;28;20019;-78
2022/06/28 09:54:56;;;;;;;8.93;5.70;;;;;;;34.45;39.62;97999.13;5111232;28;20023;-78
2022/06/28 09:57:22;;;;;;;6.82;4.65;;;;;;;34.69;38.91;98008.94;5112870;28;20027;-77
2022/06/28 09:59:54;;;;;;;7.18;4.82;;;;;;;34.49;39.10;97996.97;5113279;28;20026;-77
2022/06/28 10:02:19;;;;;;;10.73;5.20;;;;;;;34.12;39.97;98003.41;5112608;28;20027;-79
2022/06/28 10:04:45;;;;;;;8.10;4.70;;;;;;;34.22;39.62;98002.28;5114784;28;20035;-79
2022/06/28 10:07:12;;;;;;;5.90;4.65;;;;;;;34.08;39.86;97997.81;5114696;28;20026;-78
2022/06/28 10:09:38;;;;;;;8.95;4.80;;;;;;;34.92;38.90;98000.06;5113895;28;20088;-80
2022/06/28 10:15:01;;;;;;;17.05;5.25;;;;;;;35.00;39.02;97983.53;5113510;28;20051;-80
2022/06/28 10:17:36;;;;;;;11.75;5.45;;;;;;;35.46;37.81;97990.53;5113031;28;20031;-79
2022/06/28 10:20:04;;;;;;;8.48;5.40;;;;;;;34.89;38.53;97991.66;5113655;28;20024;-79
2022/06/28 10:22:30;;;;;;;6.68;5.13;;;;;;;34.86;39.04;97984.03;5113330;28;20031;-78
2022/06/28 10:24:57;;;;;;;6.78;5.05;;;;;;;34.51;39.99;97985.16;5111916;28;20553;-81
2022/06/28 10:27:24;;;;;;;7.57;5.15;;;;;;;33.77;41.38;97979.66;5112452;28;20055;-81
2022/06/28 10:29:58;;;;;;;9.68;5.75;;;;;;;33.47;42.63;97980.06;5113662;28;20412;-79
2022/06/28 10:32:39;;;;;;;16.52;5.85;;;;;;;32.28;45.22;97979.78;5112350;28;20035;-79
2022/06/28 10:35:05;;;;;;;11.02;5.32;;;;;;;32.69;44.90;97965.06;5112028;28;20517;-79
2022/06/28 10:37:30;;;;;;;10.32;6.13;;;;;;;32.35;45.75;97968.28;5115545;28;20023;-78
2022/06/28 10:40:22;;;;;;;7.38;5.63;;;;;;;32.12;46.42;97965.56;5114312;28;20024;-79
2022/06/28 10:42:49;;;;;;;8.63;6.18;;;;;;;32.29;46.11;97967.22;5109873;27;20062;-80
2022/06/28 10:45:14;;;;;;;13.45;6.22;;;;;;;32.19;46.48;97945.59;5118953;28;20423;-79
2022/06/28 10:48:11;;;;;;;13.98;6.22;;;;;;;32.64;46.13;97959.94;5114853;28;20020;-77
2022/06/28 10:50:58;;;;;;;11.25;6.93;;;;;;;32.18;47.53;97955.31;5112661;28;20053;-79
2022/06/28 10:53:28;;;;;;;12.05;6.53;;;;;;;32.42;46.94;97944.66;5112268;28;20073;-77
2022/06/28 10:56:12;;;;;;;8.88;5.45;;;;;;;32.35;47.21;97952.09;5111662;28;20095;-78
2022/06/28 10:59:04;;;;;;;10.83;6.43;;;;;;;31.74;48.37;97960.28;5111633;28;20059;-78
2022/06/28 11:01:39;;;;;;;12.32;6.03;;;;;;;32.16;47.65;97963.47;5082271;28;20021;-78
2022/06/28 11:04:11;;;;;;;10.68;6.50;;;;;;;32.17;48.20;97945.25;5085030;28;20134;-75
2022/06/28 11:06:44;;;;;;;12.45;6.72;;;;;;;32.50;47.60;97957.41;5082986;28;20503;-78
2022/06/28 11:09:32;;;;;;;12.55;6.55;;;;;;;32.19;48.42;97954.91;5089373;28;20024;-78
2022/06/28 11:12:26;;;;;;;10.07;6.43;;;;;;;31.94;48.81;97953.81;5089953;28;20026;-79
2022/06/28 11:14:54;;;;;;;9.23;6.93;;;;;;;31.84;49.42;97953.59;5075808;28;20032;-77
2022/06/28 11:17:26;;;;;;;11.77;5.68;;;;;;;32.65;47.78;97947.34;5089800;28;20051;-77
2022/06/28 11:19:57;;;;;;;11.82;6.30;;;;;;;32.62;47.28;97937.69;5076738;28;20031;-78
2022/06/28 11:22:31;;;;;;;16.80;5.97;;;;;;;31.88;48.81;97941.41;5085435;28;20388;-77
2022/06/28 11:24:58;;;;;;;;;;;;;;;31.83;49.08;97931.38;5087518;28;20032;-80
2022/06/28 11:27:24;;;;;;;9.25;6.10;;;;;;;32.70;46.86;97932.66;5089897;28;19920;-81
2022/06/28 11:29:52;;;;;;;9.32;6.05;;;;;;;32.80;46.64;97929.53;5088765;28;20102;-81
2022/06/28 11:32:26;;;;;;;10.13;5.85;;;;;;;33.14;45.54;97933.97;5088189;28;20054;-80
2022/06/28 11:34:57;;;;;;;8.90;5.97;;;;;;;32.67;46.94;97931.50;5090433;28;20083;-79
2022/06/28 11:37:23;;;;;;;8.95;6.15;;;;;;;32.48;46.74;97926.69;5085066;28;20791;-77